sensor_id;sensor_type;location;lat;lon;timestamp;P1;durP1;ratioP1;P2;durP2;ratioP2
43114;SDS011;28727;50.068;14.452;2022-07-04T00:02:07;5.57;;;3.95;;
43114;SDS011;28727;50.068;14.452;2022-07-04T00:04:39;7.95;;;4.75;;
43114;SDS011;28727;50.068;14.452;2022-07-04T00:07:11;6.78;;;4.55;;
43114;SDS011;28727;50.068;14.452;2022-07-04T00:09:42;6.40;;;4.20;;
43114;SDS011;28727;50.068;14.452;2022-07-04T00:12:15;6.65;;;5.03;;
43114;SDS011;28727;50.068;14.452;2022-07-04T00:14:46;7.38;;;4.90;;
43114;SDS011;28727;50.068;14.452;2022-07-04T00:17:19;5.28;;;4.15;;
43114;SDS011;28727;50.068;14.452;2022-07-04T00:19:50;6.00;;;4.43;;
43114;SDS011;28727;50.068;14.452;2022-07-04T00:22:22;7.07;;;5.10;;
43114;SDS011;28727;50.068;14.452;2022-07-04T00:24:54;7.05;;;4.60;;
43114;SDS011;28727;50.068;14.452;2022-07-04T00:27:25;6.68;;;4.70;;
43114;SDS011;28727;50.068;14.452;2022-07-04T00:29:57;7.03;;;5.03;;
43114;SDS011;28727;50.068;14.452;2022-07-04T00:32:32;7.53;;;5.30;;
43114;SDS011;28727;50.068;14.452;2022-07-04T00:35:04;7.10;;;4.68;;
43114;SDS011;28727;50.068;14.452;2022-07-04T00:37:36;7.90;;;4.65;;
43114;SDS011;28727;50.068;14.452;2022-07-04T00:40:08;5.70;;;3.85;;
43114;SDS011;28727;50.068;14.452;2022-07-04T00:42:40;4.82;;;4.30;;
43114;SDS011;28727;50.068;14.452;2022-07-04T00:45:12;5.68;;;4.07;;
43114;SDS011;28727;50.068;14.452;2022-07-04T00:47:43;4.38;;;3.58;;
43114;SDS011;28727;50.068;14.452;2022-07-04T00:50:15;8.63;;;4.20;;
43114;SDS011;28727;50.068;14.452;2022-07-04T00:52:47;4.55;;;3.92;;
43114;SDS011;28727;50.068;14.452;2022-07-04T00:55:19;6.63;;;4.28;;
43114;SDS011;28727;50.068;14.452;2022-07-04T01:00:25;5.47;;;4.13;;
43114;SDS011;28727;50.068;14.452;2022-07-04T01:02:56;6.38;;;4.50;;
43114;SDS011;28727;50.068;14.452;2022-07-04T01:05:28;4.47;;;4.07;;
43114;SDS011;28727;50.068;14.452;2022-07-04T01:08:00;5.88;;;4.28;;
43114;SDS011;28727;50.068;14.452;2022-07-04T01:10:32;5.85;;;3.97;;
43114;SDS011;28727;50.068;14.452;2022-07-04T01:13:04;7.53;;;4.68;;
43114;SDS011;28727;50.068;14.452;2022-07-04T01:15:35;5.85;;;4.50;;
43114;SDS011;28727;50.068;14.452;2022-07-04T01:18:08;4.78;;;3.90;;
43114;SDS011;28727;50.068;14.452;2022-07-04T01:20:39;10.52;;;5.15;;
43114;SDS011;28727;50.068;14.452;2022-07-04T01:23:11;6.43;;;4.43;;
43114;SDS011;28727;50.068;14.452;2022-07-04T01:25:43;5.55;;;4.10;;
43114;SDS011;28727;50.068;14.452;2022-07-04T01:28:15;6.88;;;4.32;;
43114;SDS011;28727;50.068;14.452;2022-07-04T01:30:50;6.05;;;4.50;;
43114;SDS011;28727;50.068;14.452;2022-07-04T01:33:23;5.25;;;4.32;;
43114;SDS011;28727;50.068;14.452;2022-07-04T01:35:55;6.05;;;4.07;;
43114;SDS011;28727;50.068;14.452;2022-07-04T01:38:27;4.97;;;4.32;;
43114;SDS011;28727;50.068;14.452;2022-07-04T01:40:58;6.32;;;3.85;;
43114;SDS011;28727;50.068;14.452;2022-07-04T01:43:30;6.28;;;4.10;;
43114;SDS011;28727;50.068;14.452;2022-07-04T01:46:02;5.35;;;4.05;;
43114;SDS011;28727;50.068;14.452;2022-07-04T01:48:34;7.07;;;4.60;;
43114;SDS011;28727;50.068;14.452;2022-07-04T01:51:05;7.13;;;3.95;;
43114;SDS011;28727;50.068;14.452;2022-07-04T01:53:38;4.65;;;3.92;;
43114;SDS011;28727;50.068;14.452;2022-07-04T01:56:10;7.05;;;5.00;;
43114;SDS011;28727;50.068;14.452;2022-07-04T01:58:41;6.97;;;4.35;;
43114;SDS011;28727;50.068;14.452;2022-07-04T02:01:13;6.45;;;3.95;;
43114;SDS011;28727;50.068;14.452;2022-07-04T02:04:03;5.30;;;4.07;;
43114;SDS011;28727;50.068;14.452;2022-07-04T02:06:36;6.90;;;4.00;;
43114;SDS011;28727;50.068;14.452;2022-07-04T02:09:08;6.85;;;4.03;;
43114;SDS011;28727;50.068;14.452;2022-07-04T02:11:49;6.60;;;4.20;;
43114;SDS011;28727;50.068;14.452;2022-07-04T02:14:40;4.80;;;4.00;;
43114;SDS011;28727;50.068;14.452;2022-07-04T02:17:13;6.15;;;4.43;;
43114;SDS011;28727;50.068;14.452;2022-07-04T02:19:45;6.43;;;4.57;;
43114;SDS011;28727;50.068;14.452;2022-07-04T02:22:17;4.97;;;4.03;;
43114;SDS011;28727;50.068;14.452;2022-07-04T02:24:49;5.22;;;4.30;;
43114;SDS011;28727;50.068;14.452;2022-07-04T02:27:21;4.85;;;3.97;;
43114;SDS011;28727;50.068;14.452;2022-07-04T02:29:54;7.55;;;4.22;;
43114;SDS011;28727;50.068;14.452;2022-07-04T02:32:25;5.22;;;4.30;;
43114;SDS011;28727;50.068;14.452;2022-07-04T02:34:57;6.13;;;4.07;;
43114;SDS011;28727;50.068;14.452;2022-07-04T02:37:29;6.72;;;3.83;;
43114;SDS011;28727;50.068;14.452;2022-07-04T02:40:01;6.35;;;4.28;;
43114;SDS011;28727;50.068;14.452;2022-07-04T02:42:34;7.20;;;3.70;;
43114;SDS011;28727;50.068;14.452;2022-07-04T02:45:07;9.20;;;4.00;;
43114;SDS011;28727;50.068;14.452;2022-07-04T02:47:39;4.40;;;3.95;;
43114;SDS011;28727;50.068;14.452;2022-07-04T02:50:11;6.07;;;4.15;;
43114;SDS011;28727;50.068;14.452;2022-07-04T02:52:42;6.03;;;4.13;;
43114;SDS011;28727;50.068;14.452;2022-07-04T02:55:14;6.40;;;4.03;;
43114;SDS011;28727;50.068;14.452;2022-07-04T02:57:46;5.35;;;3.70;;
43114;SDS011;28727;50.068;14.452;2022-07-04T03:00:17;6.93;;;4.18;;
43114;SDS011;28727;50.068;14.452;2022-07-04T03:02:49;5.82;;;3.97;;
43114;SDS011;28727;50.068;14.452;2022-07-04T03:05:21;4.20;;;3.67;;
43114;SDS011;28727;50.068;14.452;2022-07-04T03:07:53;6.20;;;3.75;;
43114;SDS011;28727;50.068;14.452;2022-07-04T03:10:26;5.95;;;3.90;;
43114;SDS011;28727;50.068;14.452;2022-07-04T03:12:57;5.03;;;4.03;;
43114;SDS011;28727;50.068;14.452;2022-07-04T03:15:37;4.88;;;4.00;;
43114;SDS011;28727;50.068;14.452;2022-07-04T03:18:08;7.55;;;3.83;;
43114;SDS011;28727;50.068;14.452;2022-07-04T03:20:40;5.85;;;4.20;;
43114;SDS011;28727;50.068;14.452;2022-07-04T03:23:12;4.40;;;3.63;;
43114;SDS011;28727;50.068;14.452;2022-07-04T03:25:44;7.03;;;3.95;;
43114;SDS011;28727;50.068;14.452;2022-07-04T03:28:16;5.32;;;4.03;;
43114;SDS011;28727;50.068;14.452;2022-07-04T03:30:47;7.78;;;3.78;;
43114;SDS011;28727;50.068;14.452;2022-07-04T03:33:19;4.65;;;3.60;;
43114;SDS011;28727;50.068;14.452;2022-07-04T03:35:51;10.73;;;3.90;;
43114;SDS011;28727;50.068;14.452;2022-07-04T03:38:23;6.32;;;3.83;;
43114;SDS011;28727;50.068;14.452;2022-07-04T03:40:55;7.72;;;4.72;;
43114;SDS011;28727;50.068;14.452;2022-07-04T03:43:27;6.82;;;4.00;;
43114;SDS011;28727;50.068;14.452;2022-07-04T03:45:59;6.68;;;4.20;;
43114;SDS011;28727;50.068;14.452;2022-07-04T03:48:31;6.07;;;3.92;;
43114;SDS011;28727;50.068;14.452;2022-07-04T03:51:02;4.43;;;3.63;;
43114;SDS011;28727;50.068;14.452;2022-07-04T03:53:34;7.00;;;4.10;;
43114;SDS011;28727;50.068;14.452;2022-07-04T03:56:06;4.63;;;4.18;;
43114;SDS011;28727;50.068;14.452;2022-07-04T03:58:40;5.70;;;3.13;;
43114;SDS011;28727;50.068;14.452;2022-07-04T04:01:13;3.97;;;3.33;;
43114;SDS011;28727;50.068;14.452;2022-07-04T04:03:47;4.37;;;3.03;;
43114;SDS011;28727;50.068;14.452;2022-07-04T04:06:37;4.80;;;3.58;;
43114;SDS011;28727;50.068;14.452;2022-07-04T04:09:09;5.90;;;3.45;;
43114;SDS011;28727;50.068;14.452;2022-07-04T04:11:47;6.97;;;4.18;;
43114;SDS011;28727;50.068;14.452;2022-07-04T04:14:19;3.95;;;3.30;;
43114;SDS011;28727;50.068;14.452;2022-07-04T04:16:51;9.25;;;3.88;;
43114;SDS011;28727;50.068;14.452;2022-07-04T04:19:22;5.90;;;3.47;;
43114;SDS011;28727;50.068;14.452;2022-07-04T04:21:54;4.63;;;3.30;;
43114;SDS011;28727;50.068;14.452;2022-07-04T04:24:26;5.28;;;3.45;;
43114;SDS011;28727;50.068;14.452;2022-07-04T04:26:57;4.43;;;3.33;;
43114;SDS011;28727;50.068;14.452;2022-07-04T04:29:29;3.70;;;3.17;;
43114;SDS011;28727;50.068;14.452;2022-07-04T04:32:00;3.70;;;3.15;;
43114;SDS011;28727;50.068;14.452;2022-07-04T04:37:06;6.93;;;3.53;;
43114;SDS011;28727;50.068;14.452;2022-07-04T04:39:38;7.50;;;3.55;;
43114;SDS011;28727;50.068;14.452;2022-07-04T04:42:10;6.80;;;3.90;;
43114;SDS011;28727;50.068;14.452;2022-07-04T04:44:42;8.98;;;3.47;;
43114;SDS011;28727;50.068;14.452;2022-07-04T04:47:14;4.78;;;3.47;;
43114;SDS011;28727;50.068;14.452;2022-07-04T04:49:46;4.97;;;3.20;;
43114;SDS011;28727;50.068;14.452;2022-07-04T04:52:19;5.90;;;3.78;;
43114;SDS011;28727;50.068;14.452;2022-07-04T04:54:51;4.82;;;3.45;;
43114;SDS011;28727;50.068;14.452;2022-07-04T04:57:22;5.32;;;3.38;;
43114;SDS011;28727;50.068;14.452;2022-07-04T04:59:54;5.45;;;3.90;;
43114;SDS011;28727;50.068;14.452;2022-07-04T05:02:26;7.10;;;3.47;;
43114;SDS011;28727;50.068;14.452;2022-07-04T05:04:58;4.45;;;3.55;;
43114;SDS011;28727;50.068;14.452;2022-07-04T05:07:29;8.10;;;3.83;;
43114;SDS011;28727;50.068;14.452;2022-07-04T05:10:02;7.43;;;3.67;;
43114;SDS011;28727;50.068;14.452;2022-07-04T05:12:34;5.57;;;3.47;;
43114;SDS011;28727;50.068;14.452;2022-07-04T05:15:10;4.43;;;3.30;;
43114;SDS011;28727;50.068;14.452;2022-07-04T05:17:42;4.45;;;3.13;;
43114;SDS011;28727;50.068;14.452;2022-07-04T05:20:13;10.80;;;3.88;;
43114;SDS011;28727;50.068;14.452;2022-07-04T05:22:45;5.95;;;3.45;;
43114;SDS011;28727;50.068;14.452;2022-07-04T05:25:20;5.82;;;3.33;;
43114;SDS011;28727;50.068;14.452;2022-07-04T05:27:53;5.28;;;3.20;;
43114;SDS011;28727;50.068;14.452;2022-07-04T05:30:24;4.88;;;3.17;;
43114;SDS011;28727;50.068;14.452;2022-07-04T05:32:56;4.72;;;3.10;;
43114;SDS011;28727;50.068;14.452;2022-07-04T05:35:29;7.60;;;3.47;;
43114;SDS011;28727;50.068;14.452;2022-07-04T05:38:02;8.05;;;3.60;;
43114;SDS011;28727;50.068;14.452;2022-07-04T05:40:34;4.07;;;3.13;;
43114;SDS011;28727;50.068;14.452;2022-07-04T05:43:06;3.95;;;3.13;;
43114;SDS011;28727;50.068;14.452;2022-07-04T05:45:38;5.93;;;4.00;;
43114;SDS011;28727;50.068;14.452;2022-07-04T05:48:10;4.10;;;3.17;;
43114;SDS011;28727;50.068;14.452;2022-07-04T05:50:42;8.88;;;3.55;;
43114;SDS011;28727;50.068;14.452;2022-07-04T05:53:13;4.95;;;2.97;;
43114;SDS011;28727;50.068;14.452;2022-07-04T05:55:45;6.53;;;3.33;;
43114;SDS011;28727;50.068;14.452;2022-07-04T05:58:17;6.22;;;3.22;;
43114;SDS011;28727;50.068;14.452;2022-07-04T06:00:49;4.95;;;3.30;;
43114;SDS011;28727;50.068;14.452;2022-07-04T06:03:21;6.30;;;3.13;;
43114;SDS011;28727;50.068;14.452;2022-07-04T06:05:55;6.95;;;3.22;;
43114;SDS011;28727;50.068;14.452;2022-07-04T06:08:27;4.45;;;3.03;;
43114;SDS011;28727;50.068;14.452;2022-07-04T06:10:59;6.40;;;3.00;;
43114;SDS011;28727;50.068;14.452;2022-07-04T06:13:30;6.78;;;3.53;;
43114;SDS011;28727;50.068;14.452;2022-07-04T06:16:02;7.47;;;3.58;;
43114;SDS011;28727;50.068;14.452;2022-07-04T06:18:34;5.18;;;3.17;;
43114;SDS011;28727;50.068;14.452;2022-07-04T06:21:06;4.32;;;3.17;;
43114;SDS011;28727;50.068;14.452;2022-07-04T06:23:37;5.15;;;3.10;;
43114;SDS011;28727;50.068;14.452;2022-07-04T06:26:09;4.65;;;2.88;;
43114;SDS011;28727;50.068;14.452;2022-07-04T06:28:41;9.23;;;3.50;;
43114;SDS011;28727;50.068;14.452;2022-07-04T06:31:18;6.57;;;3.22;;
43114;SDS011;28727;50.068;14.452;2022-07-04T06:33:49;6.28;;;3.38;;
43114;SDS011;28727;50.068;14.452;2022-07-04T06:36:40;6.88;;;3.13;;
43114;SDS011;28727;50.068;14.452;2022-07-04T06:39:12;6.15;;;3.50;;
43114;SDS011;28727;50.068;14.452;2022-07-04T06:41:44;5.22;;;3.17;;
43114;SDS011;28727;50.068;14.452;2022-07-04T06:44:16;5.85;;;4.20;;
43114;SDS011;28727;50.068;14.452;2022-07-04T06:46:47;6.10;;;3.40;;
43114;SDS011;28727;50.068;14.452;2022-07-04T06:49:19;4.78;;;3.63;;
43114;SDS011;28727;50.068;14.452;2022-07-04T06:51:50;8.70;;;3.35;;
43114;SDS011;28727;50.068;14.452;2022-07-04T06:54:22;8.60;;;3.78;;
43114;SDS011;28727;50.068;14.452;2022-07-04T06:56:55;5.90;;;3.38;;
43114;SDS011;28727;50.068;14.452;2022-07-04T06:59:46;8.27;;;5.05;;
43114;SDS011;28727;50.068;14.452;2022-07-04T07:02:18;8.02;;;3.80;;
43114;SDS011;28727;50.068;14.452;2022-07-04T07:04:50;7.13;;;3.60;;
43114;SDS011;28727;50.068;14.452;2022-07-04T07:07:22;6.60;;;3.75;;
43114;SDS011;28727;50.068;14.452;2022-07-04T07:09:55;6.35;;;3.67;;
43114;SDS011;28727;50.068;14.452;2022-07-04T07:12:29;5.30;;;3.50;;
43114;SDS011;28727;50.068;14.452;2022-07-04T07:15:01;9.25;;;3.80;;
43114;SDS011;28727;50.068;14.452;2022-07-04T07:17:33;8.10;;;3.67;;
43114;SDS011;28727;50.068;14.452;2022-07-04T07:20:05;9.07;;;3.88;;
43114;SDS011;28727;50.068;14.452;2022-07-04T07:22:38;11.05;;;4.65;;
43114;SDS011;28727;50.068;14.452;2022-07-04T07:25:13;9.30;;;4.25;;
43114;SDS011;28727;50.068;14.452;2022-07-04T07:27:45;6.38;;;3.88;;
43114;SDS011;28727;50.068;14.452;2022-07-04T07:30:16;7.55;;;4.05;;
43114;SDS011;28727;50.068;14.452;2022-07-04T07:32:48;7.15;;;3.97;;
43114;SDS011;28727;50.068;14.452;2022-07-04T07:35:20;6.90;;;3.90;;
43114;SDS011;28727;50.068;14.452;2022-07-04T07:37:54;7.30;;;3.60;;
43114;SDS011;28727;50.068;14.452;2022-07-04T07:40:26;7.95;;;3.80;;
43114;SDS011;28727;50.068;14.452;2022-07-04T07:42:58;5.85;;;3.78;;
43114;SDS011;28727;50.068;14.452;2022-07-04T07:45:30;7.82;;;4.00;;
43114;SDS011;28727;50.068;14.452;2022-07-04T07:48:02;5.85;;;3.33;;
43114;SDS011;28727;50.068;14.452;2022-07-04T07:50:34;6.22;;;3.33;;
43114;SDS011;28727;50.068;14.452;2022-07-04T07:53:07;6.38;;;3.20;;
43114;SDS011;28727;50.068;14.452;2022-07-04T07:55:39;5.72;;;3.40;;
43114;SDS011;28727;50.068;14.452;2022-07-04T07:58:11;6.10;;;4.25;;
43114;SDS011;28727;50.068;14.452;2022-07-04T08:00:42;15.77;;;4.20;;
43114;SDS011;28727;50.068;14.452;2022-07-04T08:03:30;5.88;;;3.65;;
43114;SDS011;28727;50.068;14.452;2022-07-04T08:06:20;5.82;;;4.30;;
43114;SDS011;28727;50.068;14.452;2022-07-04T08:08:51;6.78;;;3.55;;
43114;SDS011;28727;50.068;14.452;2022-07-04T08:11:23;8.15;;;3.78;;
43114;SDS011;28727;50.068;14.452;2022-07-04T08:13:55;7.43;;;3.92;;
43114;SDS011;28727;50.068;14.452;2022-07-04T08:16:27;9.73;;;4.00;;
43114;SDS011;28727;50.068;14.452;2022-07-04T08:19:19;9.70;;;3.45;;
43114;SDS011;28727;50.068;14.452;2022-07-04T08:21:51;6.65;;;3.55;;
43114;SDS011;28727;50.068;14.452;2022-07-04T08:24:44;7.80;;;3.42;;
43114;SDS011;28727;50.068;14.452;2022-07-04T08:27:16;10.68;;;3.50;;
43114;SDS011;28727;50.068;14.452;2022-07-04T08:29:47;7.35;;;3.45;;
43114;SDS011;28727;50.068;14.452;2022-07-04T08:32:19;8.57;;;3.35;;
43114;SDS011;28727;50.068;14.452;2022-07-04T08:34:52;6.82;;;4.20;;
43114;SDS011;28727;50.068;14.452;2022-07-04T08:37:26;7.82;;;3.60;;
43114;SDS011;28727;50.068;14.452;2022-07-04T08:39:59;4.27;;;3.50;;
43114;SDS011;28727;50.068;14.452;2022-07-04T08:42:33;6.28;;;3.88;;
43114;SDS011;28727;50.068;14.452;2022-07-04T08:45:07;9.70;;;4.43;;
43114;SDS011;28727;50.068;14.452;2022-07-04T08:47:39;6.88;;;4.00;;
43114;SDS011;28727;50.068;14.452;2022-07-04T08:50:29;8.05;;;4.47;;
43114;SDS011;28727;50.068;14.452;2022-07-04T08:53:12;7.63;;;5.28;;
43114;SDS011;28727;50.068;14.452;2022-07-04T08:55:47;7.28;;;3.90;;
43114;SDS011;28727;50.068;14.452;2022-07-04T08:58:38;4.97;;;3.10;;
43114;SDS011;28727;50.068;14.452;2022-07-04T09:01:10;5.43;;;3.85;;
43114;SDS011;28727;50.068;14.452;2022-07-04T09:03:46;5.63;;;3.50;;
43114;SDS011;28727;50.068;14.452;2022-07-04T09:06:18;6.00;;;4.28;;
43114;SDS011;28727;50.068;14.452;2022-07-04T09:08:49;6.03;;;3.60;;
43114;SDS011;28727;50.068;14.452;2022-07-04T09:11:25;5.10;;;3.72;;
43114;SDS011;28727;50.068;14.452;2022-07-04T09:13:57;11.18;;;4.40;;
43114;SDS011;28727;50.068;14.452;2022-07-04T09:16:29;6.80;;;4.05;;
43114;SDS011;28727;50.068;14.452;2022-07-04T09:19:01;5.90;;;3.83;;
43114;SDS011;28727;50.068;14.452;2022-07-04T09:21:48;7.05;;;3.97;;
43114;SDS011;28727;50.068;14.452;2022-07-04T09:27:35;5.03;;;3.90;;
43114;SDS011;28727;50.068;14.452;2022-07-04T09:30:09;9.65;;;3.90;;
43114;SDS011;28727;50.068;14.452;2022-07-04T09:32:49;11.90;;;4.80;;
43114;SDS011;28727;50.068;14.452;2022-07-04T09:35:31;6.18;;;3.60;;
43114;SDS011;28727;50.068;14.452;2022-07-04T09:38:04;6.78;;;3.78;;
43114;SDS011;28727;50.068;14.452;2022-07-04T09:40:36;5.00;;;3.15;;
43114;SDS011;28727;50.068;14.452;2022-07-04T09:43:28;4.80;;;3.30;;
43114;SDS011;28727;50.068;14.452;2022-07-04T09:46:00;12.02;;;3.40;;
43114;SDS011;28727;50.068;14.452;2022-07-04T09:48:51;5.22;;;3.42;;
43114;SDS011;28727;50.068;14.452;2022-07-04T09:54:12;7.95;;;5.22;;
43114;SDS011;28727;50.068;14.452;2022-07-04T09:56:49;6.13;;;3.28;;
43114;SDS011;28727;50.068;14.452;2022-07-04T09:59:24;4.97;;;3.38;;
43114;SDS011;28727;50.068;14.452;2022-07-04T10:02:08;6.47;;;3.20;;
43114;SDS011;28727;50.068;14.452;2022-07-04T10:04:41;5.95;;;2.90;;
43114;SDS011;28727;50.068;14.452;2022-07-04T10:07:29;6.40;;;3.05;;
43114;SDS011;28727;50.068;14.452;2022-07-04T10:10:26;6.20;;;2.80;;
43114;SDS011;28727;50.068;14.452;2022-07-04T10:13:04;4.65;;;2.83;;
43114;SDS011;28727;50.068;14.452;2022-07-04T10:15:41;4.03;;;2.63;;
43114;SDS011;28727;50.068;14.452;2022-07-04T10:18:14;4.05;;;2.30;;
43114;SDS011;28727;50.068;14.452;2022-07-04T10:20:51;4.75;;;2.40;;
43114;SDS011;28727;50.068;14.452;2022-07-04T10:23:24;4.45;;;2.80;;
43114;SDS011;28727;50.068;14.452;2022-07-04T10:26:02;4.90;;;2.60;;
43114;SDS011;28727;50.068;14.452;2022-07-04T10:28:34;7.22;;;2.30;;
43114;SDS011;28727;50.068;14.452;2022-07-04T10:31:10;5.95;;;2.65;;
43114;SDS011;28727;50.068;14.452;2022-07-04T10:33:44;5.65;;;2.40;;
43114;SDS011;28727;50.068;14.452;2022-07-04T10:39:01;3.70;;;2.20;;
43114;SDS011;28727;50.068;14.452;2022-07-04T10:41:34;4.68;;;2.60;;
43114;SDS011;28727;50.068;14.452;2022-07-04T10:44:06;4.35;;;2.45;;
43114;SDS011;28727;50.068;14.452;2022-07-04T10:46:47;5.60;;;2.60;;
43114;SDS011;28727;50.068;14.452;2022-07-04T10:49:22;6.28;;;2.20;;
43114;SDS011;28727;50.068;14.452;2022-07-04T10:54:35;7.00;;;2.70;;
43114;SDS011;28727;50.068;14.452;2022-07-04T11:02:32;4.88;;;2.90;;
43114;SDS011;28727;50.068;14.452;2022-07-04T11:18:03;4.88;;;2.45;;
43114;SDS011;28727;50.068;14.452;2022-07-04T11:20:43;7.80;;;2.80;;
43114;SDS011;28727;50.068;14.452;2022-07-04T11:23:18;7.70;;;2.85;;
43114;SDS011;28727;50.068;14.452;2022-07-04T11:25:51;7.43;;;2.78;;
43114;SDS011;28727;50.068;14.452;2022-07-04T11:28:29;3.97;;;2.80;;
43114;SDS011;28727;50.068;14.452;2022-07-04T11:31:15;3.80;;;2.70;;
43114;SDS011;28727;50.068;14.452;2022-07-04T11:33:47;4.75;;;2.72;;
43114;SDS011;28727;50.068;14.452;2022-07-04T11:36:24;4.35;;;2.67;;
43114;SDS011;28727;50.068;14.452;2022-07-04T11:39:03;4.80;;;2.83;;
43114;SDS011;28727;50.068;14.452;2022-07-04T11:41:37;3.38;;;2.28;;
43114;SDS011;28727;50.068;14.452;2022-07-04T11:44:38;4.55;;;2.80;;
43114;SDS011;28727;50.068;14.452;2022-07-04T11:47:32;4.93;;;2.85;;
43114;SDS011;28727;50.068;14.452;2022-07-04T11:50:14;5.32;;;2.80;;
43114;SDS011;28727;50.068;14.452;2022-07-04T11:52:49;4.55;;;2.35;;
43114;SDS011;28727;50.068;14.452;2022-07-04T11:55:54;3.53;;;2.47;;
43114;SDS011;28727;50.068;14.452;2022-07-04T11:58:40;5.75;;;3.00;;
43114;SDS011;28727;50.068;14.452;2022-07-04T12:01:13;5.25;;;2.95;;
43114;SDS011;28727;50.068;14.452;2022-07-04T12:04:10;6.28;;;2.83;;
43114;SDS011;28727;50.068;14.452;2022-07-04T12:06:48;6.82;;;2.83;;
43114;SDS011;28727;50.068;14.452;2022-07-04T12:09:21;4.90;;;2.63;;
43114;SDS011;28727;50.068;14.452;2022-07-04T12:11:55;5.80;;;2.63;;
43114;SDS011;28727;50.068;14.452;2022-07-04T12:14:28;5.13;;;2.60;;
43114;SDS011;28727;50.068;14.452;2022-07-04T12:17:10;4.72;;;2.67;;
43114;SDS011;28727;50.068;14.452;2022-07-04T12:19:56;4.35;;;2.67;;
43114;SDS011;28727;50.068;14.452;2022-07-04T12:22:37;4.97;;;2.90;;
43114;SDS011;28727;50.068;14.452;2022-07-04T12:25:20;5.15;;;2.97;;
43114;SDS011;28727;50.068;14.452;2022-07-04T12:30:37;5.03;;;2.65;;
43114;SDS011;28727;50.068;14.452;2022-07-04T12:33:10;5.95;;;2.88;;
43114;SDS011;28727;50.068;14.452;2022-07-04T12:35:45;6.55;;;3.05;;
43114;SDS011;28727;50.068;14.452;2022-07-04T12:48:55;7.47;;;2.75;;
43114;SDS011;28727;50.068;14.452;2022-07-04T12:51:29;5.78;;;3.45;;
43114;SDS011;28727;50.068;14.452;2022-07-04T12:54:08;5.40;;;2.63;;
43114;SDS011;28727;50.068;14.452;2022-07-04T12:56:42;4.05;;;2.50;;
43114;SDS011;28727;50.068;14.452;2022-07-04T12:59:16;4.65;;;2.38;;
43114;SDS011;28727;50.068;14.452;2022-07-04T13:01:51;4.57;;;2.95;;
43114;SDS011;28727;50.068;14.452;2022-07-04T13:04:23;5.30;;;2.53;;
43114;SDS011;28727;50.068;14.452;2022-07-04T13:06:54;6.93;;;2.50;;
43114;SDS011;28727;50.068;14.452;2022-07-04T13:09:26;4.97;;;2.50;;
43114;SDS011;28727;50.068;14.452;2022-07-04T13:11:58;6.45;;;2.70;;
43114;SDS011;28727;50.068;14.452;2022-07-04T13:14:48;5.22;;;2.58;;
43114;SDS011;28727;50.068;14.452;2022-07-04T13:17:24;6.38;;;2.40;;
43114;SDS011;28727;50.068;14.452;2022-07-04T13:19:57;5.55;;;2.70;;
43114;SDS011;28727;50.068;14.452;2022-07-04T13:22:29;5.30;;;2.35;;
43114;SDS011;28727;50.068;14.452;2022-07-04T13:25:02;4.63;;;2.40;;
43114;SDS011;28727;50.068;14.452;2022-07-04T13:27:35;3.67;;;2.40;;
43114;SDS011;28727;50.068;14.452;2022-07-04T13:30:07;3.72;;;2.60;;
43114;SDS011;28727;50.068;14.452;2022-07-04T13:32:39;5.63;;;2.53;;
43114;SDS011;28727;50.068;14.452;2022-07-04T13:35:11;6.15;;;2.53;;
43114;SDS011;28727;50.068;14.452;2022-07-04T13:37:42;7.47;;;2.63;;
43114;SDS011;28727;50.068;14.452;2022-07-04T13:40:14;6.28;;;3.13;;
43114;SDS011;28727;50.068;14.452;2022-07-04T13:42:46;5.15;;;2.63;;
43114;SDS011;28727;50.068;14.452;2022-07-04T13:45:30;4.45;;;2.60;;
43114;SDS011;28727;50.068;14.452;2022-07-04T13:48:01;5.03;;;2.50;;
43114;SDS011;28727;50.068;14.452;2022-07-04T13:50:33;4.47;;;2.47;;
43114;SDS011;28727;50.068;14.452;2022-07-04T13:53:09;6.18;;;3.17;;
43114;SDS011;28727;50.068;14.452;2022-07-04T13:55:41;4.20;;;2.47;;
43114;SDS011;28727;50.068;14.452;2022-07-04T13:58:19;3.55;;;2.25;;
43114;SDS011;28727;50.068;14.452;2022-07-04T14:00:50;7.18;;;2.67;;
43114;SDS011;28727;50.068;14.452;2022-07-04T14:03:22;3.25;;;2.67;;
43114;SDS011;28727;50.068;14.452;2022-07-04T14:05:54;6.00;;;2.67;;
43114;SDS011;28727;50.068;14.452;2022-07-04T14:08:28;6.72;;;2.60;;
43114;SDS011;28727;50.068;14.452;2022-07-04T14:11:00;3.45;;;2.60;;
43114;SDS011;28727;50.068;14.452;2022-07-04T14:16:06;5.78;;;2.75;;
43114;SDS011;28727;50.068;14.452;2022-07-04T14:18:38;5.68;;;2.50;;
43114;SDS011;28727;50.068;14.452;2022-07-04T14:21:10;5.13;;;2.90;;
43114;SDS011;28727;50.068;14.452;2022-07-04T14:23:41;5.80;;;2.72;;
43114;SDS011;28727;50.068;14.452;2022-07-04T14:26:14;6.90;;;3.35;;
43114;SDS011;28727;50.068;14.452;2022-07-04T14:28:47;3.80;;;3.05;;
43114;SDS011;28727;50.068;14.452;2022-07-04T14:31:20;4.65;;;2.70;;
43114;SDS011;28727;50.068;14.452;2022-07-04T14:33:51;4.93;;;2.60;;
43114;SDS011;28727;50.068;14.452;2022-07-04T14:36:23;6.90;;;3.20;;
43114;SDS011;28727;50.068;14.452;2022-07-04T14:38:55;3.65;;;2.67;;
43114;SDS011;28727;50.068;14.452;2022-07-04T14:41:27;11.70;;;4.32;;
43114;SDS011;28727;50.068;14.452;2022-07-04T14:43:59;5.47;;;2.75;;
43114;SDS011;28727;50.068;14.452;2022-07-04T14:46:31;6.43;;;2.58;;
43114;SDS011;28727;50.068;14.452;2022-07-04T14:49:03;3.72;;;2.92;;
43114;SDS011;28727;50.068;14.452;2022-07-04T14:51:35;5.32;;;2.50;;
43114;SDS011;28727;50.068;14.452;2022-07-04T14:54:07;4.93;;;2.67;;
43114;SDS011;28727;50.068;14.452;2022-07-04T14:56:39;9.00;;;2.60;;
43114;SDS011;28727;50.068;14.452;2022-07-04T14:59:11;8.77;;;2.75;;
43114;SDS011;28727;50.068;14.452;2022-07-04T15:01:42;3.40;;;2.40;;
43114;SDS011;28727;50.068;14.452;2022-07-04T15:04:15;3.83;;;2.80;;
43114;SDS011;28727;50.068;14.452;2022-07-04T15:06:46;3.53;;;2.70;;
43114;SDS011;28727;50.068;14.452;2022-07-04T15:09:19;4.85;;;2.65;;
43114;SDS011;28727;50.068;14.452;2022-07-04T15:11:50;5.88;;;2.60;;
43114;SDS011;28727;50.068;14.452;2022-07-04T15:14:23;4.72;;;2.17;;
43114;SDS011;28727;50.068;14.452;2022-07-04T15:16:55;4.85;;;2.33;;
43114;SDS011;28727;50.068;14.452;2022-07-04T15:19:27;6.18;;;2.50;;
43114;SDS011;28727;50.068;14.452;2022-07-04T15:21:59;3.00;;;2.58;;
43114;SDS011;28727;50.068;14.452;2022-07-04T15:24:49;6.82;;;2.30;;
43114;SDS011;28727;50.068;14.452;2022-07-04T15:27:21;4.75;;;2.63;;
43114;SDS011;28727;50.068;14.452;2022-07-04T15:29:52;5.90;;;2.20;;
43114;SDS011;28727;50.068;14.452;2022-07-04T15:32:25;4.60;;;2.60;;
43114;SDS011;28727;50.068;14.452;2022-07-04T15:34:57;3.40;;;2.47;;
43114;SDS011;28727;50.068;14.452;2022-07-04T15:37:46;3.63;;;2.60;;
43114;SDS011;28727;50.068;14.452;2022-07-04T15:40:17;2.97;;;2.25;;
43114;SDS011;28727;50.068;14.452;2022-07-04T15:42:49;4.68;;;2.78;;
43114;SDS011;28727;50.068;14.452;2022-07-04T15:45:21;3.80;;;2.00;;
43114;SDS011;28727;50.068;14.452;2022-07-04T15:47:52;5.00;;;2.63;;
43114;SDS011;28727;50.068;14.452;2022-07-04T15:50:25;4.40;;;2.28;;
43114;SDS011;28727;50.068;14.452;2022-07-04T15:52:59;2.85;;;2.28;;
43114;SDS011;28727;50.068;14.452;2022-07-04T15:55:31;3.25;;;2.10;;
43114;SDS011;28727;50.068;14.452;2022-07-04T15:58:03;4.05;;;2.22;;
43114;SDS011;28727;50.068;14.452;2022-07-04T16:00:34;3.60;;;2.03;;
43114;SDS011;28727;50.068;14.452;2022-07-04T16:03:06;3.58;;;2.30;;
43114;SDS011;28727;50.068;14.452;2022-07-04T16:05:38;3.08;;;2.47;;